createdAt,value
2016-07-04T00:00:58.596Z,1016.21
2016-07-04T00:01:58.617Z,1016.19
2016-07-04T00:02:58.648Z,1016.24
2016-07-04T00:03:58.674Z,1016.26
2016-07-04T00:04:58.697Z,1016.2
2016-07-04T00:05:58.721Z,1016.22
2016-07-04T00:06:58.750Z,1016.26
2016-07-04T00:07:58.774Z,1016.22
2016-07-04T00:08:58.801Z,1016.24
2016-07-04T00:09:58.824Z,1016.2
2016-07-04T00:10:58.847Z,1016.22
2016-07-04T00:11:58.878Z,1016.25
2016-07-04T00:13:58.926Z,1016.22
2016-07-04T00:14:58.953Z,1016.25
2016-07-04T00:15:58.977Z,1016.21
2016-07-04T00:16:59.003Z,1016.2
2016-07-04T00:17:59.027Z,1016.2
2016-07-04T00:18:59.053Z,1016.21
2016-07-04T00:19:59.080Z,1016.22
2016-07-04T00:20:59.105Z,1016.2
2016-07-04T00:21:59.131Z,1016.22
2016-07-04T00:22:59.155Z,1016.19
2016-07-04T00:23:59.179Z,1016.21
2016-07-04T00:24:59.205Z,1016.23
2016-07-04T00:25:59.229Z,1016.23
2016-07-04T00:26:59.254Z,1016.23
2016-07-04T00:27:59.280Z,1016.19
2016-07-04T00:29:59.330Z,1016.18
2016-07-04T00:30:59.358Z,1016.19
2016-07-04T00:31:59.382Z,1016.17
2016-07-04T00:32:59.408Z,1016.18
2016-07-04T00:33:59.431Z,1016.18
2016-07-04T00:34:59.456Z,1016.15
2016-07-04T00:35:59.483Z,1016.14
2016-07-04T00:36:59.513Z,1016.13
2016-07-04T00:37:59.534Z,1016.09
2016-07-04T00:38:59.561Z,1016.11
2016-07-04T00:39:59.584Z,1016.08
2016-07-04T00:40:59.610Z,1016.08
2016-07-04T00:41:59.638Z,1016.07
2016-07-04T00:42:59.661Z,1016.09
2016-07-04T00:44:59.714Z,1016.1
2016-07-04T00:45:59.740Z,1016.13
2016-07-04T00:46:59.764Z,1016.1
2016-07-04T00:47:59.790Z,1016.1
2016-07-04T00:48:59.813Z,1016.13
2016-07-04T00:49:59.838Z,1016.12
2016-07-04T00:50:59.866Z,1016.09
2016-07-04T00:51:59.892Z,1016.08
2016-07-04T00:52:59.917Z,1016.09
2016-07-04T00:53:59.942Z,1016.08
2016-07-04T00:54:59.967Z,1016.14
2016-07-04T00:55:59.993Z,1016.05
2016-07-04T00:57:00.016Z,1016.07
2016-07-04T00:58:00.046Z,1016.04
2016-07-04T00:59:00.069Z,1016.06
2016-07-04T01:00:00.091Z,1016.08
2016-07-04T01:01:00.116Z,1016.07
2016-07-04T01:02:00.140Z,1016.04
2016-07-04T01:03:00.168Z,1016.06
2016-07-04T01:04:00.192Z,1016.07
2016-07-04T01:05:00.217Z,1016.04
2016-07-04T01:06:00.304Z,1016.04
2016-07-04T01:07:00.325Z,1016.04
2016-07-04T01:08:00.354Z,1016.04
2016-07-04T01:09:00.320Z,1016.03
2016-07-04T01:10:00.401Z,1016.06
2016-07-04T01:11:00.369Z,1016.06
2016-07-04T01:12:00.439Z,1016.04
2016-07-04T01:13:00.420Z,1016.03
2016-07-04T01:14:00.447Z,1016.01
2016-07-04T01:15:00.469Z,1015.99
2016-07-04T01:17:00.522Z,1016
2016-07-04T01:18:00.548Z,1015.97
2016-07-04T01:19:00.568Z,1015.98
2016-07-04T01:20:00.594Z,1015.98
2016-07-04T01:21:00.628Z,1015.97
2016-07-04T01:22:00.649Z,1016
2016-07-04T01:23:00.671Z,1015.98
2016-07-04T01:24:00.698Z,1016.01
2016-07-04T01:25:00.721Z,1016.03
2016-07-04T01:26:00.748Z,1016.03
2016-07-04T01:27:00.773Z,1016.02
2016-07-04T01:28:00.800Z,1016.04
2016-07-04T01:29:00.824Z,1016.01
2016-07-04T01:30:00.848Z,1016.02
2016-07-04T01:31:00.874Z,1016.01
2016-07-04T01:33:00.924Z,1016.02
2016-07-04T01:34:00.949Z,1016.01
2016-07-04T01:35:00.971Z,1016.02
2016-07-04T01:36:00.997Z,1016.01
2016-07-04T01:37:01.023Z,1016.06
2016-07-04T01:38:01.047Z,1016.06
2016-07-04T01:39:01.072Z,1016.07
2016-07-04T01:40:01.099Z,1016.02
2016-07-04T01:41:01.123Z,1016.03
2016-07-04T01:42:01.149Z,1016.06
2016-07-04T01:43:01.172Z,1016.08
2016-07-04T01:44:01.197Z,1016.09
2016-07-04T01:45:01.223Z,1016.11
2016-07-04T01:46:01.249Z,1016.11
2016-07-04T01:47:01.272Z,1016.1
2016-07-04T01:49:01.321Z,1016.12
2016-07-04T01:50:01.349Z,1016.13
2016-07-04T01:51:01.371Z,1016.11
2016-07-04T01:52:01.396Z,1016.15
2016-07-04T01:53:01.423Z,1016.17
2016-07-04T01:54:01.446Z,1016.13
2016-07-04T01:55:01.474Z,1016.13
2016-07-04T01:56:01.496Z,1016.14
2016-07-04T01:57:01.521Z,1016.06
2016-07-04T01:58:01.549Z,1016.1
2016-07-04T01:59:01.570Z,1016.09
2016-07-04T02:00:01.596Z,1016.06
2016-07-04T02:01:01.620Z,1016.03
2016-07-04T02:02:01.644Z,1016.09
2016-07-04T02:03:01.672Z,1016.1
2016-07-04T02:05:01.720Z,1016.08
2016-07-04T02:06:01.746Z,1016.07
2016-07-04T02:07:01.767Z,1016.09
2016-07-04T02:08:01.800Z,1016.08
2016-07-04T02:09:01.875Z,1016.16
2016-07-04T02:10:01.914Z,1016.12
2016-07-04T02:11:01.869Z,1016.14
2016-07-04T02:12:01.895Z,1016.2
2016-07-04T02:13:01.966Z,1016.18
2016-07-04T02:14:01.944Z,1016.15
2016-07-04T02:15:01.969Z,1016.2
2016-07-04T02:16:01.994Z,1016.18
2016-07-04T02:17:02.056Z,1016.18
2016-07-04T02:18:02.045Z,1016.18
2016-07-04T02:20:02.094Z,1016.22
2016-07-04T02:21:02.116Z,1016.2
2016-07-04T02:22:02.144Z,1016.19
2016-07-04T02:23:02.169Z,1016.26
2016-07-04T02:24:02.195Z,1016.22
2016-07-04T02:25:02.221Z,1016.23
2016-07-04T02:26:02.244Z,1016.21
2016-07-04T02:27:02.271Z,1016.21
2016-07-04T02:28:02.296Z,1016.2
2016-07-04T02:29:02.318Z,1016.21
2016-07-04T02:30:02.344Z,1016.18
2016-07-04T02:31:02.371Z,1016.21
2016-07-04T02:32:02.394Z,1016.18
2016-07-04T02:33:02.419Z,1016.17
2016-07-04T02:34:02.445Z,1016.17
2016-07-04T02:35:02.470Z,1016.19
2016-07-04T02:36:02.491Z,1016.21
2016-07-04T02:37:02.517Z,1016.21
2016-07-04T02:38:02.544Z,1016.2
2016-07-04T02:39:02.568Z,1016.24
2016-07-04T02:40:02.598Z,1016.22
2016-07-04T02:41:02.618Z,1016.2
2016-07-04T02:42:02.639Z,1016.19
2016-07-04T02:43:02.666Z,1016.17
2016-07-04T02:44:02.690Z,1016.18
2016-07-04T02:45:02.715Z,1016.15
2016-07-04T02:46:02.739Z,1016.16
2016-07-04T02:47:02.766Z,1016.17
2016-07-04T02:48:02.789Z,1016.14
2016-07-04T02:49:02.813Z,1016.14
2016-07-04T02:50:02.838Z,1016.16
2016-07-04T02:52:02.891Z,1016.16
2016-07-04T02:53:02.914Z,1016.12
2016-07-04T02:54:02.937Z,1016.15
2016-07-04T02:55:02.965Z,1016.12
2016-07-04T02:56:02.987Z,1016.13
2016-07-04T02:57:03.015Z,1016.12
2016-07-04T02:58:03.040Z,1016.14
2016-07-04T02:59:03.057Z,1016.09
2016-07-04T03:00:03.087Z,1016.12
2016-07-04T03:01:03.113Z,1016.09
2016-07-04T03:02:03.137Z,1016.11
2016-07-04T03:03:03.161Z,1016.1
2016-07-04T03:04:03.185Z,1016.11
2016-07-04T03:05:03.212Z,1016.1
2016-07-04T03:06:03.235Z,1016.17
2016-07-04T03:08:03.282Z,1016.19
2016-07-04T03:09:03.306Z,1016.2
2016-07-04T03:10:03.333Z,1016.24
2016-07-04T03:11:03.358Z,1016.22
2016-07-04T03:12:03.383Z,1016.21
2016-07-04T03:13:03.409Z,1016.22
2016-07-04T03:14:03.431Z,1016.22
2016-07-04T03:15:03.454Z,1016.23
2016-07-04T03:16:03.481Z,1016.27
2016-07-04T03:17:03.503Z,1016.27
2016-07-04T03:18:03.530Z,1016.28
2016-07-04T03:19:03.554Z,1016.29
2016-07-04T03:20:03.579Z,1016.27
2016-07-04T03:21:03.604Z,1016.3
2016-07-04T03:22:03.629Z,1016.33
2016-07-04T03:24:03.679Z,1016.34
2016-07-04T03:25:03.703Z,1016.32
2016-07-04T03:26:03.729Z,1016.33
2016-07-04T03:27:03.752Z,1016.35
2016-07-04T03:28:03.778Z,1016.34
2016-07-04T03:29:03.801Z,1016.35
2016-07-04T03:30:03.828Z,1016.37
2016-07-04T03:31:03.851Z,1016.35
2016-07-04T03:32:03.878Z,1016.38
2016-07-04T03:33:03.900Z,1016.38
2016-07-04T03:34:03.925Z,1016.38
2016-07-04T03:35:03.952Z,1016.42
2016-07-04T03:36:03.975Z,1016.39
2016-07-04T03:37:04.000Z,1016.39
2016-07-04T03:38:04.029Z,1016.39
2016-07-04T03:40:04.076Z,1016.38
2016-07-04T03:41:04.097Z,1016.37
2016-07-04T03:42:04.121Z,1016.43
2016-07-04T03:43:04.148Z,1016.44
2016-07-04T03:44:04.175Z,1016.46
2016-07-04T03:45:04.195Z,1016.48
2016-07-04T03:46:04.237Z,1016.52
2016-07-04T03:47:04.247Z,1016.48
2016-07-04T03:48:04.272Z,1016.48
2016-07-04T03:49:04.299Z,1016.5
2016-07-04T03:50:04.323Z,1016.47
2016-07-04T03:51:04.349Z,1016.47
2016-07-04T03:52:04.371Z,1016.47
2016-07-04T03:53:04.397Z,1016.43
2016-07-04T03:55:04.447Z,1016.49
2016-07-04T03:56:04.472Z,1016.44
2016-07-04T03:57:04.494Z,1016.46
2016-07-04T03:58:04.524Z,1016.46
2016-07-04T03:59:04.549Z,1016.47
2016-07-04T04:00:04.574Z,1016.47
2016-07-04T04:01:04.596Z,1016.49
2016-07-04T04:02:04.624Z,1016.47
2016-07-04T04:03:04.645Z,1016.46
2016-07-04T04:04:04.670Z,1016.46
2016-07-04T04:05:04.698Z,1016.5
2016-07-04T04:06:04.722Z,1016.53
2016-07-04T04:07:04.745Z,1016.5
2016-07-04T04:08:04.770Z,1016.52
2016-07-04T04:09:04.798Z,1016.51
2016-07-04T04:10:04.822Z,1016.51
2016-07-04T04:11:04.845Z,1016.51
2016-07-04T04:12:04.871Z,1016.51
2016-07-04T04:13:04.895Z,1016.52
2016-07-04T04:14:04.922Z,1016.6
2016-07-04T04:15:04.948Z,1016.83
2016-07-04T04:16:04.974Z,1016.99
2016-07-04T04:17:04.998Z,1017
2016-07-04T04:18:05.026Z,1016.96
2016-07-04T04:19:05.049Z,1017
2016-07-04T04:20:05.076Z,1017
2016-07-04T04:21:05.102Z,1017.02
2016-07-04T04:22:05.134Z,1017.09
2016-07-04T04:23:05.154Z,1017.04
2016-07-04T04:24:05.181Z,1017.04
2016-07-04T04:25:05.207Z,1017.08
2016-07-04T04:27:05.263Z,1017.08
2016-07-04T04:28:05.289Z,1017.11
2016-07-04T04:29:05.315Z,1017.11
2016-07-04T04:30:05.346Z,1017.16
2016-07-04T04:31:05.369Z,1017.2
2016-07-04T04:32:05.400Z,1017.16
2016-07-04T04:33:05.427Z,1017.2
2016-07-04T04:34:05.458Z,1017.15
2016-07-04T04:35:05.486Z,1017.17
2016-07-04T04:36:05.512Z,1017.18
2016-07-04T04:37:05.541Z,1017.18
2016-07-04T04:38:05.571Z,1017.23
2016-07-04T04:39:05.598Z,1017.25
2016-07-04T04:40:05.629Z,1017.26
2016-07-04T04:41:05.660Z,1017.28
2016-07-04T04:43:05.718Z,1017.27
2016-07-04T04:44:05.744Z,1017.24
2016-07-04T04:45:05.777Z,1017.24
2016-07-04T04:46:05.805Z,1017.28
2016-07-04T04:47:05.838Z,1017.27
2016-07-04T04:48:05.869Z,1017.31
2016-07-04T04:49:05.897Z,1017.29
2016-07-04T04:50:05.930Z,1017.29
2016-07-04T04:51:05.958Z,1017.32
2016-07-04T04:52:05.989Z,1017.33
2016-07-04T04:53:06.020Z,1017.38
2016-07-04T04:54:06.053Z,1017.36
2016-07-04T04:55:06.082Z,1017.39
2016-07-04T04:56:06.113Z,1017.4
2016-07-04T04:57:06.145Z,1017.41
2016-07-04T04:59:06.207Z,1017.36
2016-07-04T05:00:06.239Z,1017.35
2016-07-04T05:01:06.276Z,1017.39
2016-07-04T05:02:06.302Z,1017.39
2016-07-04T05:03:06.334Z,1017.46
2016-07-04T05:04:06.366Z,1017.42
2016-07-04T05:05:06.402Z,1017.45
2016-07-04T05:06:06.437Z,1017.51
2016-07-04T05:07:06.464Z,1017.54
2016-07-04T05:08:06.497Z,1017.56
2016-07-04T05:09:06.527Z,1017.62
2016-07-04T05:10:06.565Z,1017.6
2016-07-04T05:11:06.592Z,1017.61
2016-07-04T05:12:06.627Z,1017.65
2016-07-04T05:13:06.658Z,1017.59
2016-07-04T05:15:06.725Z,1017.64
2016-07-04T05:16:06.756Z,1017.64
2016-07-04T05:17:06.788Z,1017.63
2016-07-04T05:18:06.824Z,1017.62
2016-07-04T05:19:06.855Z,1017.61
2016-07-04T05:20:06.890Z,1017.56
2016-07-04T05:21:06.922Z,1017.58
2016-07-04T05:22:06.954Z,1017.55
2016-07-04T05:23:06.987Z,1017.57
2016-07-04T05:24:07.020Z,1017.56
2016-07-04T05:25:07.054Z,1017.55
2016-07-04T05:26:07.085Z,1017.57
2016-07-04T05:27:07.118Z,1017.56
2016-07-04T05:28:07.152Z,1017.56
2016-07-04T05:30:07.220Z,1017.59
2016-07-04T05:31:07.250Z,1017.58
2016-07-04T05:32:07.286Z,1017.62
2016-07-04T05:33:07.319Z,1017.57
2016-07-04T05:34:07.354Z,1017.56
2016-07-04T05:35:07.388Z,1017.61
2016-07-04T05:36:07.428Z,1017.62
2016-07-04T05:37:07.457Z,1017.63
2016-07-04T05:39:16.091Z,1017.61
2016-07-04T05:40:16.124Z,1017.66
2016-07-04T05:41:16.159Z,1017.64
2016-07-04T05:42:16.193Z,1017.66
2016-07-04T05:44:16.263Z,1017.73
2016-07-04T05:45:16.296Z,1017.74
2016-07-04T05:46:16.328Z,1017.77
2016-07-04T05:47:16.365Z,1017.82
2016-07-04T05:48:16.400Z,1017.8
2016-07-04T05:49:16.435Z,1017.88
2016-07-04T05:50:16.467Z,1017.9
2016-07-04T05:51:16.504Z,1017.99
2016-07-04T05:52:16.664Z,1018.01
2016-07-04T05:53:16.595Z,1018.02
2016-07-04T05:54:16.605Z,1018.06
2016-07-04T05:55:16.645Z,1018.08
2016-07-04T05:56:16.678Z,1018.07
2016-07-04T05:57:16.716Z,1018.16
2016-07-04T05:58:16.749Z,1018.14
2016-07-04T06:00:16.822Z,1018.14
2016-07-04T06:01:16.857Z,1018.11
2016-07-04T06:02:16.892Z,1018.11
2016-07-04T06:03:16.925Z,1018.11
2016-07-04T06:04:16.960Z,1018.08
2016-07-04T06:05:16.999Z,1018.03
2016-07-04T06:06:17.032Z,1018.01
2016-07-04T06:07:17.065Z,1018
2016-07-04T06:08:17.102Z,1018
2016-07-04T06:09:17.134Z,1018
2016-07-04T06:10:17.174Z,1018.04
2016-07-04T06:11:17.209Z,1018.01
2016-07-04T06:12:17.240Z,1017.98
2016-07-04T06:13:17.282Z,1017.99
2016-07-04T06:15:17.355Z,1018
2016-07-04T06:16:17.388Z,1018.01
2016-07-04T06:17:17.421Z,1018.01
2016-07-04T06:18:17.459Z,1018.04
2016-07-04T06:19:17.493Z,1018.05
2016-07-04T06:20:17.533Z,1018.05
2016-07-04T06:21:17.567Z,1018.09
2016-07-04T06:22:17.605Z,1018.05
2016-07-04T06:23:17.639Z,1018.04
2016-07-04T06:24:17.675Z,1018.02
2016-07-04T06:25:17.712Z,1018.02
2016-07-04T06:26:17.750Z,1018.02
2016-07-04T06:27:17.786Z,1018.02
2016-07-04T06:28:17.819Z,1018.02
2016-07-04T06:29:17.856Z,1018.04
2016-07-04T06:30:17.892Z,1018.08
2016-07-04T06:31:17.930Z,1018.06
2016-07-04T06:32:17.966Z,1018.05
2016-07-04T06:33:18.000Z,1018.03
2016-07-04T06:34:18.035Z,1018
2016-07-04T06:35:18.074Z,1018.01
2016-07-04T06:36:18.108Z,1018.02
2016-07-04T06:37:18.146Z,1018.03
2016-07-04T06:38:18.183Z,1018.06
2016-07-04T06:39:18.219Z,1018.1
2016-07-04T06:40:18.259Z,1018.25
2016-07-04T06:41:18.293Z,1018.42
2016-07-04T06:42:18.327Z,1018.61
2016-07-04T06:43:18.363Z,1018.55
2016-07-04T06:44:18.401Z,1018.55
2016-07-04T06:45:18.434Z,1018.55
2016-07-04T06:47:18.512Z,1018.49
2016-07-04T06:48:18.547Z,1018.5
2016-07-04T06:49:18.584Z,1018.51
2016-07-04T06:50:18.621Z,1018.5
2016-07-04T06:51:18.657Z,1018.51
2016-07-04T06:52:18.696Z,1018.54
2016-07-04T06:53:18.730Z,1018.49
2016-07-04T06:54:18.769Z,1018.5
2016-07-04T06:55:18.805Z,1018.48
2016-07-04T06:56:18.844Z,1018.57
2016-07-04T06:57:18.879Z,1018.57
2016-07-04T06:58:18.917Z,1018.51
2016-07-04T06:59:18.958Z,1018.53
2016-07-04T07:00:18.993Z,1018.55
2016-07-04T07:01:19.030Z,1018.55
2016-07-04T07:03:19.102Z,1018.64
2016-07-04T07:04:19.138Z,1018.65
2016-07-04T07:05:19.178Z,1018.73
2016-07-04T07:06:19.215Z,1018.76
2016-07-04T07:07:19.254Z,1018.75
2016-07-04T07:08:19.289Z,1018.79
2016-07-04T07:09:19.327Z,1018.91
2016-07-04T07:10:19.366Z,1018.95
2016-07-04T07:11:19.402Z,1018.9
2016-07-04T07:12:19.458Z,1018.85
2016-07-04T07:13:19.477Z,1018.86
2016-07-04T07:14:19.513Z,1018.89
2016-07-04T07:15:19.548Z,1018.88
2016-07-04T07:16:19.588Z,1018.89
2016-07-04T07:17:19.627Z,1019.01
2016-07-04T07:19:19.703Z,1019.09
2016-07-04T07:20:19.738Z,1019.09
2016-07-04T07:21:19.776Z,1019.18
2016-07-04T07:22:19.817Z,1019.23
2016-07-04T07:23:19.852Z,1019.31
2016-07-04T07:24:19.886Z,1019.33
2016-07-04T07:25:19.927Z,1019.44
2016-07-04T07:26:19.962Z,1019.41
2016-07-04T07:27:19.998Z,1019.41
2016-07-04T07:28:20.043Z,1019.51
2016-07-04T07:29:20.072Z,1019.49
2016-07-04T07:30:20.111Z,1019.5
2016-07-04T07:31:20.147Z,1019.5
2016-07-04T07:32:20.196Z,1019.56
2016-07-04T07:33:20.223Z,1019.58
2016-07-04T07:35:20.306Z,1019.57
2016-07-04T07:36:20.334Z,1019.64
2016-07-04T07:37:20.372Z,1019.64
2016-07-04T07:38:20.829Z,1019.59
2016-07-04T07:39:20.445Z,1019.57
2016-07-04T07:40:20.479Z,1019.48
2016-07-04T07:41:20.517Z,1019.49
2016-07-04T07:42:20.558Z,1019.43
2016-07-04T07:43:20.593Z,1019.32
2016-07-04T07:44:20.633Z,1019.22
2016-07-04T07:45:20.672Z,1019.16
2016-07-04T07:46:20.705Z,1019.15
2016-07-04T07:47:20.846Z,1019.08
2016-07-04T07:48:20.780Z,1019.01
2016-07-04T07:50:20.854Z,1018.84
2016-07-04T07:51:20.892Z,1018.78
2016-07-04T07:52:20.933Z,1018.73
2016-07-04T07:53:20.967Z,1018.65
2016-07-04T07:54:21.002Z,1018.65
2016-07-04T07:55:21.039Z,1018.53
2016-07-04T07:56:21.076Z,1018.52
2016-07-04T07:57:21.116Z,1018.53
2016-07-04T07:58:21.151Z,1018.39
2016-07-04T07:59:21.208Z,1018.07
2016-07-04T08:00:21.225Z,1018.02
2016-07-04T08:01:21.258Z,1018.01
2016-07-04T08:02:21.300Z,1018
2016-07-04T08:03:21.334Z,1018.04
2016-07-04T08:04:21.370Z,1018.03
2016-07-04T08:05:21.410Z,1018.03
2016-07-04T08:06:21.444Z,1018.03
2016-07-04T08:07:21.482Z,1018.02
2016-07-04T08:08:21.519Z,1018.02
2016-07-04T08:09:21.561Z,1018.02
2016-07-04T08:10:21.591Z,1017.97
2016-07-04T08:11:21.627Z,1017.92
2016-07-04T08:12:21.667Z,1017.92
2016-07-04T08:13:21.701Z,1017.99
2016-07-04T08:14:21.737Z,1017.77
2016-07-04T08:15:21.773Z,1017.91
2016-07-04T08:16:21.812Z,1017.61
2016-07-04T08:17:21.847Z,1017.97
2016-07-04T08:18:21.882Z,1017.97
2016-07-04T08:19:21.918Z,1017.91
2016-07-04T08:20:21.956Z,1017.91
2016-07-04T08:22:22.027Z,1018.08
2016-07-04T08:23:22.064Z,1017.94
2016-07-04T08:24:22.100Z,1018.05
2016-07-04T08:25:22.748Z,1018.05
2016-07-04T08:26:22.174Z,1017.48
2016-07-04T08:27:22.210Z,1017.44
2016-07-04T08:28:22.243Z,1017.44
2016-07-04T08:29:22.279Z,1017.41
2016-07-04T08:30:22.315Z,1017.55
2016-07-04T08:31:22.347Z,1017.69
2016-07-04T08:32:22.570Z,1017.93
2016-07-04T08:33:22.483Z,1017.96
2016-07-04T08:34:22.455Z,1017.9
2016-07-04T08:35:22.491Z,1017.92
2016-07-04T08:36:22.525Z,1017.98
2016-07-04T08:38:22.641Z,1018.13
2016-07-04T08:39:22.631Z,1018.19
2016-07-04T08:40:22.664Z,1018.24
2016-07-04T08:41:22.699Z,1018.2
2016-07-04T08:42:22.733Z,1018.19
2016-07-04T08:43:22.772Z,1018.1
2016-07-04T08:44:22.804Z,1018.04
2016-07-04T08:45:22.840Z,1018
2016-07-04T08:46:22.884Z,1017.97
2016-07-04T08:47:22.909Z,1017.78
2016-07-04T08:48:22.946Z,1017.95
2016-07-04T08:49:22.997Z,1017.95
2016-07-04T08:50:23.011Z,1017.95
2016-07-04T08:51:41.911Z,1017.96
2016-07-04T08:52:23.082Z,1017.91
2016-07-04T08:54:23.153Z,1017.8
2016-07-04T08:55:23.188Z,1017.71
2016-07-04T08:56:23.426Z,1017.41
2016-07-04T08:57:23.260Z,1017.49
2016-07-04T08:58:23.295Z,1017.46
2016-07-04T08:59:23.328Z,1017.5
2016-07-04T09:25:51.687Z,1017.21
2016-07-04T09:26:51.722Z,1017.15
2016-07-04T09:27:51.757Z,1017.21
2016-07-04T09:28:51.793Z,1017.18
2016-07-04T09:29:51.832Z,1017.17
2016-07-04T09:30:51.860Z,1017.1
2016-07-04T09:31:51.894Z,1017.13
2016-07-04T09:32:51.925Z,1017.17
2016-07-04T09:33:51.959Z,1017.07
2016-07-04T09:34:51.995Z,1017.22
2016-07-04T09:35:52.027Z,1017.19
2016-07-04T09:36:52.061Z,1017.13
2016-07-04T09:37:52.096Z,1017.14
2016-07-04T09:38:52.125Z,1017.04
2016-07-04T09:39:52.169Z,1017.11
2016-07-04T09:41:52.226Z,1017.09
2016-07-04T09:42:52.257Z,1017.13
2016-07-04T09:43:52.292Z,1017.14
2016-07-04T09:44:52.325Z,1017.11
2016-07-04T09:45:52.358Z,1017.07
2016-07-04T09:46:52.390Z,1017.09
2016-07-04T09:47:52.425Z,1017.14
2016-07-04T09:48:52.453Z,1017.12
2016-07-04T09:49:52.490Z,1017.14
2016-07-04T09:50:52.518Z,1017.11
2016-07-04T09:51:52.555Z,1017.1
2016-07-04T09:52:52.586Z,1017.08
2016-07-04T09:53:52.622Z,1017.1
2016-07-04T09:54:52.649Z,1017.07
2016-07-04T09:55:52.677Z,1017.08
2016-07-04T09:57:52.746Z,1017.03
2016-07-04T09:58:52.778Z,1017.05
2016-07-04T09:59:52.809Z,1017.06
2016-07-04T10:00:52.840Z,1017.03
2016-07-04T10:01:52.874Z,1017.04
2016-07-04T10:02:52.903Z,1017.05
2016-07-04T10:03:52.938Z,1017.06
2016-07-04T10:04:52.964Z,1017.06
2016-07-04T10:05:53.004Z,1017.06
2016-07-04T10:06:53.030Z,1017.03
2016-07-04T10:07:53.063Z,1017.03
2016-07-04T10:08:53.092Z,1016.99
2016-07-04T10:09:53.122Z,1016.99
2016-07-04T10:10:53.157Z,1016.96
2016-07-04T10:12:53.220Z,1017
2016-07-04T10:13:53.251Z,1016.95
2016-07-04T10:14:53.284Z,1016.97
2016-07-04T10:15:53.313Z,1016.93
2016-07-04T10:16:53.346Z,1016.93
2016-07-04T10:17:53.369Z,1016.93
2016-07-04T10:18:53.406Z,1016.94
2016-07-04T10:19:53.434Z,1016.9
2016-07-04T10:20:53.465Z,1016.99
2016-07-04T10:21:53.501Z,1016.92
2016-07-04T10:22:53.529Z,1016.86
2016-07-04T10:23:53.559Z,1016.83
2016-07-04T10:24:53.590Z,1016.94
2016-07-04T10:25:53.622Z,1016.89
2016-07-04T10:26:53.654Z,1016.85
2016-07-04T10:27:53.684Z,1016.86
2016-07-04T10:28:53.717Z,1016.81
2016-07-04T10:29:53.745Z,1016.8
2016-07-04T10:30:53.779Z,1016.84
2016-07-04T10:31:53.809Z,1016.9
2016-07-04T10:32:53.840Z,1016.88
2016-07-04T10:33:53.871Z,1016.87
2016-07-04T10:34:53.904Z,1016.88
2016-07-04T10:35:53.935Z,1016.79
2016-07-04T10:36:53.966Z,1016.82
2016-07-04T10:37:53.996Z,1016.79
2016-07-04T10:38:54.028Z,1016.77
2016-07-04T10:39:54.057Z,1016.77
2016-07-04T10:40:54.090Z,1016.82
2016-07-04T10:41:54.121Z,1016.77
2016-07-04T10:42:54.150Z,1016.74
2016-07-04T10:44:54.212Z,1016.71
2016-07-04T10:45:54.247Z,1016.69
2016-07-04T10:46:54.277Z,1016.7
2016-07-04T10:47:54.307Z,1016.65
2016-07-04T10:48:54.347Z,1016.63
2016-07-04T10:49:54.372Z,1016.69
2016-07-04T10:50:54.403Z,1016.68
2016-07-04T10:51:54.432Z,1016.67
2016-07-04T10:52:54.465Z,1016.61
2016-07-04T10:53:54.494Z,1016.6
2016-07-04T10:54:54.525Z,1016.63
2016-07-04T10:55:54.558Z,1016.59
2016-07-04T10:56:54.589Z,1016.66
2016-07-04T10:57:54.620Z,1016.59
2016-07-04T10:58:54.652Z,1016.57
2016-07-04T11:00:54.711Z,1016.6
2016-07-04T11:01:54.741Z,1016.56
2016-07-04T11:02:54.775Z,1016.61
2016-07-04T11:03:54.808Z,1016.57
2016-07-04T11:04:54.835Z,1016.58
2016-07-04T11:05:54.869Z,1016.57
2016-07-04T11:06:54.900Z,1016.57
2016-07-04T11:07:54.928Z,1016.57
2016-07-04T11:08:54.963Z,1016.61
2016-07-04T11:09:54.991Z,1016.62
2016-07-04T11:10:55.026Z,1016.6
2016-07-04T11:11:55.054Z,1016.6
2016-07-04T11:12:55.086Z,1016.65
2016-07-04T11:13:55.116Z,1016.63
2016-07-04T11:14:55.146Z,1016.59
2016-07-04T11:16:55.207Z,1016.62
2016-07-04T11:17:55.240Z,1016.6
2016-07-04T11:18:55.270Z,1016.59
2016-07-04T11:19:55.301Z,1016.58
2016-07-04T11:20:55.330Z,1016.61
2016-07-04T11:21:55.361Z,1016.64
2016-07-04T11:22:55.393Z,1016.58
2016-07-04T11:23:55.420Z,1016.59
2016-07-04T11:24:55.454Z,1016.61
2016-07-04T11:25:55.485Z,1016.58
2016-07-04T11:26:55.514Z,1016.57
2016-07-04T11:27:55.546Z,1016.58
2016-07-04T11:28:55.577Z,1016.57
2016-07-04T11:29:55.607Z,1016.59
2016-07-04T11:30:55.636Z,1016.55
2016-07-04T11:32:55.698Z,1016.54
2016-07-04T11:33:55.726Z,1016.47
2016-07-04T11:34:55.758Z,1016.51
2016-07-04T11:35:55.788Z,1016.45
2016-07-04T11:36:55.817Z,1016.46
2016-07-04T11:37:55.844Z,1016.45
2016-07-04T11:38:55.883Z,1016.45
2016-07-04T11:39:55.908Z,1016.49
2016-07-04T11:40:55.938Z,1016.41
2016-07-04T11:41:55.972Z,1016.39
2016-07-04T11:42:56.000Z,1016.37
2016-07-04T11:43:56.032Z,1016.41
2016-07-04T11:44:56.056Z,1016.41
2016-07-04T11:45:56.091Z,1016.43
2016-07-04T11:47:56.153Z,1016.41
2016-07-04T11:48:56.180Z,1016.34
2016-07-04T11:49:56.211Z,1016.31
2016-07-04T11:50:56.243Z,1016.42
2016-07-04T11:51:56.272Z,1016.37
2016-07-04T11:52:56.302Z,1016.46
2016-07-04T11:53:56.337Z,1016.45
2016-07-04T11:54:56.363Z,1016.42
2016-07-04T11:55:56.393Z,1016.43
2016-07-04T11:56:56.423Z,1016.38
2016-07-04T11:57:56.453Z,1016.36
2016-07-04T11:58:56.487Z,1016.34
2016-07-04T11:59:56.512Z,1016.37
2016-07-04T12:00:56.546Z,1016.36
2016-07-04T12:01:56.574Z,1016.4
2016-07-04T12:02:56.606Z,1016.43
2016-07-04T12:03:56.636Z,1016.32
2016-07-04T12:04:56.666Z,1016.38
2016-07-04T12:05:56.692Z,1016.41
2016-07-04T12:06:56.725Z,1016.39
2016-07-04T12:07:56.754Z,1016.38
2016-07-04T12:08:56.783Z,1016.37
2016-07-04T12:09:56.815Z,1016.36
2016-07-04T12:10:56.844Z,1016.34
2016-07-04T12:11:56.877Z,1016.36
2016-07-04T12:12:56.907Z,1016.35
2016-07-04T12:13:56.934Z,1016.35
2016-07-04T12:14:56.966Z,1016.33
2016-07-04T12:15:56.996Z,1016.32
2016-07-04T12:16:57.027Z,1016.38
2016-07-04T12:17:57.056Z,1016.37
2016-07-04T12:19:57.112Z,1016.36
2016-07-04T12:20:57.147Z,1016.38
2016-07-04T12:21:57.176Z,1016.33
2016-07-04T12:22:57.208Z,1016.3
2016-07-04T12:23:57.236Z,1016.31
2016-07-04T12:24:57.269Z,1016.35
2016-07-04T12:25:57.298Z,1016.29
2016-07-04T12:26:57.477Z,1016.24
2016-07-04T12:27:57.356Z,1016.18
2016-07-04T12:28:57.388Z,1016.2
2016-07-04T12:29:57.418Z,1016.23
2016-07-04T12:30:57.447Z,1016.19
2016-07-04T12:31:57.478Z,1016.2
2016-07-04T12:32:57.506Z,1016.15
2016-07-04T12:33:57.537Z,1016.09
2016-07-04T12:35:57.599Z,1016.14
2016-07-04T12:36:57.629Z,1016.12
2016-07-04T12:37:57.658Z,1016.04
2016-07-04T12:38:57.688Z,1016.06
2016-07-04T12:39:57.719Z,1016.06
2016-07-04T12:40:57.749Z,1016.18
2016-07-04T12:41:57.778Z,1016.11
2016-07-04T12:42:57.811Z,1016.07
2016-07-04T12:43:57.838Z,1016.05
2016-07-04T12:44:57.869Z,1016.08
2016-07-04T12:45:57.901Z,1016.04
2016-07-04T12:46:57.930Z,1016.02
2016-07-04T12:47:57.961Z,1016.03
2016-07-04T12:48:57.989Z,1016.09
2016-07-04T12:49:58.022Z,1016.05
2016-07-04T12:51:58.083Z,1016.06
2016-07-04T12:52:58.109Z,1016.08
2016-07-04T12:53:58.139Z,1016.08
2016-07-04T12:54:58.173Z,1016.09
2016-07-04T12:55:58.197Z,1016.09
2016-07-04T12:56:58.230Z,1016.05
2016-07-04T12:57:58.260Z,1016.01
2016-07-04T12:58:58.287Z,1015.99
2016-07-04T12:59:58.317Z,1015.99
2016-07-04T13:00:58.347Z,1015.94
2016-07-04T13:01:58.376Z,1015.96
2016-07-04T13:02:58.406Z,1015.9
2016-07-04T13:03:58.434Z,1015.93
2016-07-04T13:04:58.466Z,1015.95
2016-07-04T13:05:58.498Z,1015.89
2016-07-04T13:07:58.556Z,1015.96
2016-07-04T13:08:58.583Z,1015.97
2016-07-04T13:09:58.618Z,1015.93
2016-07-04T13:10:58.647Z,1015.92
2016-07-04T13:11:58.675Z,1015.91
2016-07-04T13:12:58.710Z,1015.91
2016-07-04T13:13:58.735Z,1015.91
2016-07-04T13:14:58.766Z,1015.91
2016-07-04T13:15:58.797Z,1015.86
2016-07-04T13:16:58.824Z,1015.85